sensor_id;sensor_type;location;lat;lon;timestamp;P1;durP1;ratioP1;P2;durP2;ratioP2
823;SDS011;373;49.342;8.146;2023-04-19T00:00:37;7.10;;;6.35;;
823;SDS011;373;49.342;8.146;2023-04-19T00:03:04;7.05;;;6.45;;
823;SDS011;373;49.342;8.146;2023-04-19T00:05:32;6.97;;;6.38;;
823;SDS011;373;49.342;8.146;2023-04-19T00:07:59;7.68;;;6.97;;
823;SDS011;373;49.342;8.146;2023-04-19T00:10:27;7.45;;;6.75;;
823;SDS011;373;49.342;8.146;2023-04-19T00:12:55;7.70;;;6.93;;
823;SDS011;373;49.342;8.146;2023-04-19T00:15:22;8.32;;;7.47;;
823;SDS011;373;49.342;8.146;2023-04-19T00:17:49;7.88;;;7.18;;
823;SDS011;373;49.342;8.146;2023-04-19T00:20:16;7.35;;;6.75;;
823;SDS011;373;49.342;8.146;2023-04-19T00:22:44;7.88;;;6.72;;
823;SDS011;373;49.342;8.146;2023-04-19T00:25:11;8.00;;;7.20;;
823;SDS011;373;49.342;8.146;2023-04-19T00:27:38;7.20;;;6.50;;
823;SDS011;373;49.342;8.146;2023-04-19T00:30:07;7.22;;;6.53;;
823;SDS011;373;49.342;8.146;2023-04-19T00:32:35;6.75;;;6.05;;
823;SDS011;373;49.342;8.146;2023-04-19T00:35:02;8.02;;;7.10;;
823;SDS011;373;49.342;8.146;2023-04-19T00:37:35;8.70;;;7.70;;
823;SDS011;373;49.342;8.146;2023-04-19T00:40:03;7.78;;;7.07;;
823;SDS011;373;49.342;8.146;2023-04-19T00:42:31;8.30;;;6.85;;
823;SDS011;373;49.342;8.146;2023-04-19T00:44:58;8.38;;;7.60;;
823;SDS011;373;49.342;8.146;2023-04-19T00:47:26;7.82;;;7.13;;
823;SDS011;373;49.342;8.146;2023-04-19T00:49:54;7.05;;;6.35;;
823;SDS011;373;49.342;8.146;2023-04-19T00:52:21;7.82;;;7.13;;
823;SDS011;373;49.342;8.146;2023-04-19T00:54:48;9.00;;;7.60;;
823;SDS011;373;49.342;8.146;2023-04-19T00:57:16;8.25;;;7.45;;
823;SDS011;373;49.342;8.146;2023-04-19T00:59:44;7.50;;;6.80;;
823;SDS011;373;49.342;8.146;2023-04-19T01:02:11;7.32;;;6.72;;
823;SDS011;373;49.342;8.146;2023-04-19T01:04:40;8.70;;;7.85;;
823;SDS011;373;49.342;8.146;2023-04-19T01:07:07;7.55;;;6.85;;
823;SDS011;373;49.342;8.146;2023-04-19T01:09:34;9.52;;;8.20;;
823;SDS011;373;49.342;8.146;2023-04-19T01:12:06;8.15;;;7.43;;
823;SDS011;373;49.342;8.146;2023-04-19T01:14:33;9.52;;;8.70;;
823;SDS011;373;49.342;8.146;2023-04-19T01:17:00;8.48;;;7.60;;
823;SDS011;373;49.342;8.146;2023-04-19T01:19:27;8.13;;;7.32;;
823;SDS011;373;49.342;8.146;2023-04-19T01:21:56;8.13;;;7.32;;
823;SDS011;373;49.342;8.146;2023-04-19T01:24:25;8.63;;;7.70;;
823;SDS011;373;49.342;8.146;2023-04-19T01:26:52;8.75;;;7.95;;
823;SDS011;373;49.342;8.146;2023-04-19T01:29:19;8.52;;;7.68;;
823;SDS011;373;49.342;8.146;2023-04-19T01:31:47;8.55;;;7.75;;
823;SDS011;373;49.342;8.146;2023-04-19T01:34:18;8.27;;;7.47;;
823;SDS011;373;49.342;8.146;2023-04-19T01:36:45;8.27;;;7.47;;
823;SDS011;373;49.342;8.146;2023-04-19T01:39:12;8.23;;;7.43;;
823;SDS011;373;49.342;8.146;2023-04-19T01:41:40;7.35;;;6.57;;
823;SDS011;373;49.342;8.146;2023-04-19T01:44:08;7.72;;;6.93;;
823;SDS011;373;49.342;8.146;2023-04-19T01:46:35;7.80;;;7.10;;
823;SDS011;373;49.342;8.146;2023-04-19T01:49:03;8.20;;;7.40;;
823;SDS011;373;49.342;8.146;2023-04-19T01:51:30;6.90;;;6.30;;
823;SDS011;373;49.342;8.146;2023-04-19T01:53:57;7.40;;;6.70;;
823;SDS011;373;49.342;8.146;2023-04-19T01:56:24;7.68;;;6.93;;
823;SDS011;373;49.342;8.146;2023-04-19T01:58:53;7.65;;;6.85;;
823;SDS011;373;49.342;8.146;2023-04-19T02:01:20;7.32;;;6.63;;
823;SDS011;373;49.342;8.146;2023-04-19T02:03:47;8.23;;;7.43;;
823;SDS011;373;49.342;8.146;2023-04-19T02:06:14;7.18;;;6.57;;
823;SDS011;373;49.342;8.146;2023-04-19T02:08:41;7.55;;;6.95;;
823;SDS011;373;49.342;8.146;2023-04-19T02:11:09;7.40;;;6.65;;
823;SDS011;373;49.342;8.146;2023-04-19T02:13:38;7.30;;;6.60;;
823;SDS011;373;49.342;8.146;2023-04-19T02:16:07;8.02;;;6.88;;
823;SDS011;373;49.342;8.146;2023-04-19T02:18:35;7.75;;;6.95;;
823;SDS011;373;49.342;8.146;2023-04-19T02:21:03;7.78;;;7.05;;
823;SDS011;373;49.342;8.146;2023-04-19T02:23:31;7.22;;;6.55;;
823;SDS011;373;49.342;8.146;2023-04-19T02:25:59;7.13;;;6.43;;
823;SDS011;373;49.342;8.146;2023-04-19T02:28:27;6.00;;;5.40;;
823;SDS011;373;49.342;8.146;2023-04-19T02:30:54;7.03;;;6.07;;
823;SDS011;373;49.342;8.146;2023-04-19T02:33:23;7.47;;;6.47;;
823;SDS011;373;49.342;8.146;2023-04-19T02:35:51;8.15;;;6.75;;
823;SDS011;373;49.342;8.146;2023-04-19T02:38:18;6.93;;;6.32;;
823;SDS011;373;49.342;8.146;2023-04-19T02:40:45;7.70;;;6.57;;
823;SDS011;373;49.342;8.146;2023-04-19T02:43:12;7.60;;;6.90;;
823;SDS011;373;49.342;8.146;2023-04-19T02:45:41;6.90;;;6.30;;
823;SDS011;373;49.342;8.146;2023-04-19T02:48:11;7.13;;;6.43;;
823;SDS011;373;49.342;8.146;2023-04-19T02:50:39;7.40;;;6.72;;
823;SDS011;373;49.342;8.146;2023-04-19T02:53:07;7.45;;;6.50;;
823;SDS011;373;49.342;8.146;2023-04-19T02:55:35;7.57;;;6.80;;
823;SDS011;373;49.342;8.146;2023-04-19T02:58:11;7.43;;;6.72;;
823;SDS011;373;49.342;8.146;2023-04-19T03:00:47;7.15;;;6.45;;
823;SDS011;373;49.342;8.146;2023-04-19T03:03:18;7.47;;;6.40;;
823;SDS011;373;49.342;8.146;2023-04-19T03:05:46;7.85;;;7.13;;
823;SDS011;373;49.342;8.146;2023-04-19T03:08:13;7.03;;;6.32;;
823;SDS011;373;49.342;8.146;2023-04-19T03:10:42;6.65;;;6.05;;
823;SDS011;373;49.342;8.146;2023-04-19T03:13:10;6.95;;;6.35;;
823;SDS011;373;49.342;8.146;2023-04-19T03:15:37;7.72;;;6.57;;
823;SDS011;373;49.342;8.146;2023-04-19T03:18:04;7.55;;;6.93;;
823;SDS011;373;49.342;8.146;2023-04-19T03:20:33;7.30;;;5.72;;
823;SDS011;373;49.342;8.146;2023-04-19T03:23:01;6.95;;;6.32;;
823;SDS011;373;49.342;8.146;2023-04-19T03:25:29;7.22;;;6.53;;
823;SDS011;373;49.342;8.146;2023-04-19T03:28:09;7.15;;;6.45;;
823;SDS011;373;49.342;8.146;2023-04-19T03:30:56;7.18;;;6.55;;
823;SDS011;373;49.342;8.146;2023-04-19T03:33:24;6.85;;;6.22;;
823;SDS011;373;49.342;8.146;2023-04-19T03:35:53;6.82;;;6.20;;
823;SDS011;373;49.342;8.146;2023-04-19T03:38:22;7.30;;;6.70;;
823;SDS011;373;49.342;8.146;2023-04-19T03:40:49;7.93;;;6.32;;
823;SDS011;373;49.342;8.146;2023-04-19T03:43:17;7.13;;;6.07;;
823;SDS011;373;49.342;8.146;2023-04-19T03:45:44;7.47;;;6.75;;
823;SDS011;373;49.342;8.146;2023-04-19T03:48:11;7.07;;;6.47;;
823;SDS011;373;49.342;8.146;2023-04-19T03:50:39;7.10;;;6.40;;
823;SDS011;373;49.342;8.146;2023-04-19T03:53:09;9.20;;;7.13;;
823;SDS011;373;49.342;8.146;2023-04-19T03:55:38;7.13;;;6.43;;
823;SDS011;373;49.342;8.146;2023-04-19T03:58:05;6.88;;;6.20;;
823;SDS011;373;49.342;8.146;2023-04-19T04:00:46;7.40;;;6.70;;
823;SDS011;373;49.342;8.146;2023-04-19T04:03:14;7.60;;;6.70;;
823;SDS011;373;49.342;8.146;2023-04-19T04:05:41;7.22;;;6.60;;
823;SDS011;373;49.342;8.146;2023-04-19T04:08:08;7.53;;;6.85;;
823;SDS011;373;49.342;8.146;2023-04-19T04:10:35;7.57;;;6.88;;
823;SDS011;373;49.342;8.146;2023-04-19T04:13:04;8.43;;;7.03;;
823;SDS011;373;49.342;8.146;2023-04-19T04:15:39;7.43;;;6.70;;
823;SDS011;373;49.342;8.146;2023-04-19T04:18:10;7.22;;;6.60;;
823;SDS011;373;49.342;8.146;2023-04-19T04:20:37;7.95;;;7.15;;
823;SDS011;373;49.342;8.146;2023-04-19T04:23:08;6.93;;;6.22;;
823;SDS011;373;49.342;8.146;2023-04-19T04:25:39;7.30;;;6.63;;
823;SDS011;373;49.342;8.146;2023-04-19T04:28:12;7.70;;;7.00;;
823;SDS011;373;49.342;8.146;2023-04-19T04:30:40;8.00;;;6.93;;
823;SDS011;373;49.342;8.146;2023-04-19T04:33:09;6.90;;;6.30;;
823;SDS011;373;49.342;8.146;2023-04-19T04:35:38;7.72;;;6.88;;
823;SDS011;373;49.342;8.146;2023-04-19T04:38:13;8.30;;;7.50;;
823;SDS011;373;49.342;8.146;2023-04-19T04:40:41;8.07;;;7.30;;
823;SDS011;373;49.342;8.146;2023-04-19T04:43:08;8.00;;;6.72;;
823;SDS011;373;49.342;8.146;2023-04-19T04:45:37;7.57;;;6.88;;
823;SDS011;373;49.342;8.146;2023-04-19T04:48:07;7.88;;;7.07;;
823;SDS011;373;49.342;8.146;2023-04-19T04:50:35;9.82;;;7.43;;
823;SDS011;373;49.342;8.146;2023-04-19T04:53:02;8.60;;;7.50;;
823;SDS011;373;49.342;8.146;2023-04-19T04:55:33;7.43;;;6.72;;
823;SDS011;373;49.342;8.146;2023-04-19T04:58:04;8.00;;;6.93;;
823;SDS011;373;49.342;8.146;2023-04-19T05:00:44;7.95;;;7.20;;
823;SDS011;373;49.342;8.146;2023-04-19T05:03:14;8.10;;;7.30;;
823;SDS011;373;49.342;8.146;2023-04-19T05:05:50;8.30;;;7.47;;
823;SDS011;373;49.342;8.146;2023-04-19T05:08:19;8.90;;;7.97;;
823;SDS011;373;49.342;8.146;2023-04-19T05:10:46;7.28;;;6.63;;
823;SDS011;373;49.342;8.146;2023-04-19T05:13:14;7.38;;;6.68;;
823;SDS011;373;49.342;8.146;2023-04-19T05:15:41;7.40;;;6.68;;
823;SDS011;373;49.342;8.146;2023-04-19T05:18:10;6.50;;;5.90;;
823;SDS011;373;49.342;8.146;2023-04-19T05:20:37;7.03;;;6.07;;
823;SDS011;373;49.342;8.146;2023-04-19T05:23:14;6.53;;;5.68;;
823;SDS011;373;49.342;8.146;2023-04-19T05:25:42;6.75;;;6.00;;
823;SDS011;373;49.342;8.146;2023-04-19T05:28:10;7.07;;;6.43;;
823;SDS011;373;49.342;8.146;2023-04-19T05:30:46;6.95;;;6.25;;
823;SDS011;373;49.342;8.146;2023-04-19T05:33:13;6.90;;;6.30;;
823;SDS011;373;49.342;8.146;2023-04-19T05:35:41;6.85;;;6.05;;
823;SDS011;373;49.342;8.146;2023-04-19T05:38:08;8.00;;;6.32;;
823;SDS011;373;49.342;8.146;2023-04-19T05:40:35;6.95;;;6.18;;
823;SDS011;373;49.342;8.146;2023-04-19T05:43:04;8.20;;;7.40;;
823;SDS011;373;49.342;8.146;2023-04-19T05:45:36;7.25;;;6.53;;
823;SDS011;373;49.342;8.146;2023-04-19T05:48:05;7.72;;;6.82;;
823;SDS011;373;49.342;8.146;2023-04-19T05:50:54;6.75;;;5.95;;
823;SDS011;373;49.342;8.146;2023-04-19T05:53:38;6.72;;;6.05;;
823;SDS011;373;49.342;8.146;2023-04-19T05:56:05;7.05;;;6.43;;
823;SDS011;373;49.342;8.146;2023-04-19T05:58:32;7.35;;;6.70;;
823;SDS011;373;49.342;8.146;2023-04-19T06:01:00;7.45;;;6.03;;
823;SDS011;373;49.342;8.146;2023-04-19T06:03:28;7.55;;;6.38;;
823;SDS011;373;49.342;8.146;2023-04-19T06:05:57;7.05;;;6.38;;
823;SDS011;373;49.342;8.146;2023-04-19T06:08:24;7.55;;;6.82;;
823;SDS011;373;49.342;8.146;2023-04-19T06:10:54;6.85;;;6.20;;
823;SDS011;373;49.342;8.146;2023-04-19T06:13:23;7.18;;;6.13;;
823;SDS011;373;49.342;8.146;2023-04-19T06:15:51;7.55;;;6.85;;
823;SDS011;373;49.342;8.146;2023-04-19T06:18:18;8.18;;;6.88;;
823;SDS011;373;49.342;8.146;2023-04-19T06:20:47;7.43;;;6.72;;
823;SDS011;373;49.342;8.146;2023-04-19T06:23:14;8.98;;;6.40;;
823;SDS011;373;49.342;8.146;2023-04-19T06:25:42;7.28;;;6.53;;
823;SDS011;373;49.342;8.146;2023-04-19T06:28:09;7.15;;;6.45;;
823;SDS011;373;49.342;8.146;2023-04-19T06:30:37;8.45;;;7.65;;
823;SDS011;373;49.342;8.146;2023-04-19T06:33:04;7.28;;;6.57;;
823;SDS011;373;49.342;8.146;2023-04-19T06:35:31;7.63;;;6.80;;
823;SDS011;373;49.342;8.146;2023-04-19T06:37:59;7.32;;;6.55;;
823;SDS011;373;49.342;8.146;2023-04-19T06:40:26;7.40;;;6.70;;
823;SDS011;373;49.342;8.146;2023-04-19T06:42:54;7.85;;;7.13;;
823;SDS011;373;49.342;8.146;2023-04-19T06:45:21;7.93;;;6.40;;
823;SDS011;373;49.342;8.146;2023-04-19T06:47:48;7.72;;;6.53;;
823;SDS011;373;49.342;8.146;2023-04-19T06:50:15;7.55;;;6.68;;
823;SDS011;373;49.342;8.146;2023-04-19T06:52:43;6.93;;;6.32;;
823;SDS011;373;49.342;8.146;2023-04-19T06:55:11;8.30;;;7.47;;
823;SDS011;373;49.342;8.146;2023-04-19T06:57:38;6.57;;;5.97;;
823;SDS011;373;49.342;8.146;2023-04-19T07:00:07;7.55;;;6.70;;
823;SDS011;373;49.342;8.146;2023-04-19T07:02:35;7.18;;;6.47;;
823;SDS011;373;49.342;8.146;2023-04-19T07:05:02;7.70;;;7.00;;
823;SDS011;373;49.342;8.146;2023-04-19T07:07:30;9.50;;;8.60;;
823;SDS011;373;49.342;8.146;2023-04-19T07:09:57;8.95;;;8.05;;
823;SDS011;373;49.342;8.146;2023-04-19T07:12:25;8.77;;;7.88;;
823;SDS011;373;49.342;8.146;2023-04-19T07:14:52;7.38;;;6.68;;
823;SDS011;373;49.342;8.146;2023-04-19T07:17:21;7.15;;;6.45;;
823;SDS011;373;49.342;8.146;2023-04-19T07:19:48;7.82;;;7.13;;
823;SDS011;373;49.342;8.146;2023-04-19T07:22:15;8.63;;;7.35;;
823;SDS011;373;49.342;8.146;2023-04-19T07:24:42;8.15;;;7.45;;
823;SDS011;373;49.342;8.146;2023-04-19T07:27:09;7.40;;;6.63;;
823;SDS011;373;49.342;8.146;2023-04-19T07:29:39;7.60;;;6.90;;
823;SDS011;373;49.342;8.146;2023-04-19T07:32:06;8.13;;;7.40;;
823;SDS011;373;49.342;8.146;2023-04-19T07:34:34;8.25;;;7.45;;
823;SDS011;373;49.342;8.146;2023-04-19T07:37:02;7.32;;;6.72;;
823;SDS011;373;49.342;8.146;2023-04-19T07:39:29;7.28;;;6.57;;
823;SDS011;373;49.342;8.146;2023-04-19T07:41:57;7.75;;;7.05;;
823;SDS011;373;49.342;8.146;2023-04-19T07:44:25;7.78;;;7.07;;
823;SDS011;373;49.342;8.146;2023-04-19T07:46:53;7.78;;;7.07;;
823;SDS011;373;49.342;8.146;2023-04-19T07:49:20;9.80;;;8.02;;
823;SDS011;373;49.342;8.146;2023-04-19T07:51:47;8.50;;;7.70;;
823;SDS011;373;49.342;8.146;2023-04-19T07:54:14;8.82;;;8.02;;
823;SDS011;373;49.342;8.146;2023-04-19T07:56:44;8.77;;;7.88;;
823;SDS011;373;49.342;8.146;2023-04-19T07:59:11;8.65;;;7.82;;
823;SDS011;373;49.342;8.146;2023-04-19T08:01:38;7.70;;;6.90;;
823;SDS011;373;49.342;8.146;2023-04-19T08:04:06;8.50;;;7.53;;
823;SDS011;373;49.342;8.146;2023-04-19T08:06:34;7.88;;;7.18;;
823;SDS011;373;49.342;8.146;2023-04-19T08:09:02;8.15;;;7.45;;
823;SDS011;373;49.342;8.146;2023-04-19T08:11:30;9.05;;;8.13;;
823;SDS011;373;49.342;8.146;2023-04-19T08:13:57;8.73;;;7.93;;
823;SDS011;373;49.342;8.146;2023-04-19T08:16:24;9.20;;;8.30;;
823;SDS011;373;49.342;8.146;2023-04-19T08:18:52;9.45;;;8.65;;
823;SDS011;373;49.342;8.146;2023-04-19T08:21:21;9.57;;;8.68;;
823;SDS011;373;49.342;8.146;2023-04-19T08:23:48;9.90;;;9.00;;
823;SDS011;373;49.342;8.146;2023-04-19T08:26:15;9.23;;;8.35;;
823;SDS011;373;49.342;8.146;2023-04-19T08:28:42;8.63;;;7.82;;
823;SDS011;373;49.342;8.146;2023-04-19T08:31:09;9.63;;;7.93;;
823;SDS011;373;49.342;8.146;2023-04-19T08:33:36;7.57;;;6.88;;
823;SDS011;373;49.342;8.146;2023-04-19T08:36:04;8.45;;;7.72;;
823;SDS011;373;49.342;8.146;2023-04-19T08:38:33;10.25;;;8.07;;
823;SDS011;373;49.342;8.146;2023-04-19T08:41:02;9.02;;;8.23;;
823;SDS011;373;49.342;8.146;2023-04-19T08:43:29;9.32;;;8.52;;
823;SDS011;373;49.342;8.146;2023-04-19T08:46:01;9.82;;;8.82;;
823;SDS011;373;49.342;8.146;2023-04-19T08:48:29;9.32;;;8.38;;
823;SDS011;373;49.342;8.146;2023-04-19T08:51:00;9.77;;;8.77;;
823;SDS011;373;49.342;8.146;2023-04-19T08:53:27;10.18;;;9.27;;
823;SDS011;373;49.342;8.146;2023-04-19T08:55:56;9.73;;;8.77;;
823;SDS011;373;49.342;8.146;2023-04-19T08:58:24;9.25;;;8.45;;
823;SDS011;373;49.342;8.146;2023-04-19T09:00:53;10.02;;;9.07;;
823;SDS011;373;49.342;8.146;2023-04-19T09:03:21;10.15;;;9.05;;
823;SDS011;373;49.342;8.146;2023-04-19T09:05:48;9.60;;;8.75;;
823;SDS011;373;49.342;8.146;2023-04-19T09:08:22;10.50;;;9.45;;
823;SDS011;373;49.342;8.146;2023-04-19T09:10:54;9.23;;;8.32;;
823;SDS011;373;49.342;8.146;2023-04-19T09:13:23;9.13;;;8.18;;
823;SDS011;373;49.342;8.146;2023-04-19T09:15:51;9.13;;;8.23;;
823;SDS011;373;49.342;8.146;2023-04-19T09:18:21;8.85;;;7.60;;
823;SDS011;373;49.342;8.146;2023-04-19T09:20:50;9.15;;;8.25;;
823;SDS011;373;49.342;8.146;2023-04-19T09:23:22;10.50;;;8.18;;
823;SDS011;373;49.342;8.146;2023-04-19T09:25:51;9.00;;;8.20;;
823;SDS011;373;49.342;8.146;2023-04-19T09:28:20;9.13;;;8.25;;
823;SDS011;373;49.342;8.146;2023-04-19T09:30:48;9.45;;;8.63;;
823;SDS011;373;49.342;8.146;2023-04-19T09:33:26;9.95;;;9.05;;
823;SDS011;373;49.342;8.146;2023-04-19T09:35:57;8.80;;;8.00;;
823;SDS011;373;49.342;8.146;2023-04-19T09:38:25;9.52;;;8.63;;
823;SDS011;373;49.342;8.146;2023-04-19T09:40:52;9.65;;;8.85;;
823;SDS011;373;49.342;8.146;2023-04-19T09:43:33;9.15;;;8.35;;
823;SDS011;373;49.342;8.146;2023-04-19T09:46:00;8.95;;;8.10;;
823;SDS011;373;49.342;8.146;2023-04-19T09:48:27;9.50;;;8.60;;
823;SDS011;373;49.342;8.146;2023-04-19T09:50:54;9.23;;;8.32;;
823;SDS011;373;49.342;8.146;2023-04-19T09:53:23;9.00;;;8.20;;
823;SDS011;373;49.342;8.146;2023-04-19T09:55:51;8.65;;;7.78;;
823;SDS011;373;49.342;8.146;2023-04-19T09:58:19;9.25;;;8.18;;
823;SDS011;373;49.342;8.146;2023-04-19T10:00:48;8.88;;;7.97;;
823;SDS011;373;49.342;8.146;2023-04-19T10:03:17;9.18;;;8.38;;
823;SDS011;373;49.342;8.146;2023-04-19T10:05:44;10.52;;;8.60;;
823;SDS011;373;49.342;8.146;2023-04-19T10:08:11;9.13;;;8.32;;
823;SDS011;373;49.342;8.146;2023-04-19T10:10:39;8.15;;;7.45;;
823;SDS011;373;49.342;8.146;2023-04-19T10:13:08;9.82;;;7.93;;
823;SDS011;373;49.342;8.146;2023-04-19T10:15:37;9.48;;;8.52;;
823;SDS011;373;49.342;8.146;2023-04-19T10:18:08;13.15;;;8.82;;
823;SDS011;373;49.342;8.146;2023-04-19T10:20:37;9.52;;;8.45;;
823;SDS011;373;49.342;8.146;2023-04-19T10:23:13;9.27;;;8.38;;
823;SDS011;373;49.342;8.146;2023-04-19T10:25:44;9.98;;;8.85;;
823;SDS011;373;49.342;8.146;2023-04-19T10:28:12;10.48;;;9.32;;
823;SDS011;373;49.342;8.146;2023-04-19T10:30:51;9.95;;;9.05;;
823;SDS011;373;49.342;8.146;2023-04-19T10:33:24;10.13;;;9.18;;
823;SDS011;373;49.342;8.146;2023-04-19T10:35:54;11.30;;;10.20;;
823;SDS011;373;49.342;8.146;2023-04-19T10:38:34;10.30;;;9.30;;
823;SDS011;373;49.342;8.146;2023-04-19T10:41:03;9.52;;;8.60;;
823;SDS011;373;49.342;8.146;2023-04-19T10:43:36;9.55;;;8.75;;
823;SDS011;373;49.342;8.146;2023-04-19T10:46:07;8.98;;;8.07;;
823;SDS011;373;49.342;8.146;2023-04-19T10:48:37;9.90;;;8.90;;
823;SDS011;373;49.342;8.146;2023-04-19T10:51:18;10.00;;;9.00;;
823;SDS011;373;49.342;8.146;2023-04-19T10:53:48;10.23;;;8.65;;
823;SDS011;373;49.342;8.146;2023-04-19T10:56:17;10.05;;;9.07;;
823;SDS011;373;49.342;8.146;2023-04-19T11:01:40;9.40;;;8.50;;
823;SDS011;373;49.342;8.146;2023-04-19T11:04:09;11.38;;;10.25;;
823;SDS011;373;49.342;8.146;2023-04-19T11:06:38;9.45;;;8.45;;
823;SDS011;373;49.342;8.146;2023-04-19T11:09:22;9.85;;;8.85;;
823;SDS011;373;49.342;8.146;2023-04-19T11:11:49;9.57;;;8.68;;
823;SDS011;373;49.342;8.146;2023-04-19T11:14:19;8.50;;;7.70;;
823;SDS011;373;49.342;8.146;2023-04-19T11:16:46;9.05;;;8.15;;
823;SDS011;373;49.342;8.146;2023-04-19T11:19:15;9.45;;;8.45;;
823;SDS011;373;49.342;8.146;2023-04-19T11:21:43;9.25;;;8.43;;
823;SDS011;373;49.342;8.146;2023-04-19T11:24:11;9.40;;;8.60;;
823;SDS011;373;49.342;8.146;2023-04-19T11:26:41;8.50;;;7.15;;
823;SDS011;373;49.342;8.146;2023-04-19T11:29:09;8.50;;;7.57;;
823;SDS011;373;49.342;8.146;2023-04-19T11:31:36;8.38;;;7.57;;
823;SDS011;373;49.342;8.146;2023-04-19T11:34:03;8.32;;;7.20;;
823;SDS011;373;49.342;8.146;2023-04-19T11:36:32;8.13;;;7.43;;
823;SDS011;373;49.342;8.146;2023-04-19T11:39:01;8.80;;;7.90;;
823;SDS011;373;49.342;8.146;2023-04-19T11:41:35;7.85;;;7.07;;
823;SDS011;373;49.342;8.146;2023-04-19T11:44:11;7.03;;;6.40;;
823;SDS011;373;49.342;8.146;2023-04-19T11:46:39;8.65;;;7.85;;
823;SDS011;373;49.342;8.146;2023-04-19T11:49:06;7.45;;;6.75;;
823;SDS011;373;49.342;8.146;2023-04-19T11:51:34;7.85;;;7.13;;
823;SDS011;373;49.342;8.146;2023-04-19T11:54:11;7.80;;;7.03;;
823;SDS011;373;49.342;8.146;2023-04-19T11:56:57;8.13;;;7.43;;
823;SDS011;373;49.342;8.146;2023-04-19T11:59:24;6.78;;;6.13;;
823;SDS011;373;49.342;8.146;2023-04-19T12:01:51;7.22;;;6.63;;
823;SDS011;373;49.342;8.146;2023-04-19T12:04:18;7.60;;;6.75;;
823;SDS011;373;49.342;8.146;2023-04-19T12:06:56;6.32;;;5.72;;
823;SDS011;373;49.342;8.146;2023-04-19T12:09:24;6.28;;;5.68;;
823;SDS011;373;49.342;8.146;2023-04-19T12:11:51;6.22;;;5.65;;
823;SDS011;373;49.342;8.146;2023-04-19T12:14:19;5.63;;;4.88;;
823;SDS011;373;49.342;8.146;2023-04-19T12:17:06;5.70;;;5.20;;
823;SDS011;373;49.342;8.146;2023-04-19T12:19:35;5.65;;;5.15;;
823;SDS011;373;49.342;8.146;2023-04-19T12:22:08;5.78;;;4.97;;
823;SDS011;373;49.342;8.146;2023-04-19T12:24:39;5.78;;;5.28;;
823;SDS011;373;49.342;8.146;2023-04-19T12:27:08;5.93;;;5.43;;
823;SDS011;373;49.342;8.146;2023-04-19T12:29:36;4.80;;;4.40;;
823;SDS011;373;49.342;8.146;2023-04-19T12:32:04;6.40;;;5.07;;
823;SDS011;373;49.342;8.146;2023-04-19T12:34:31;5.40;;;4.90;;
823;SDS011;373;49.342;8.146;2023-04-19T12:36:58;5.28;;;4.88;;
823;SDS011;373;49.342;8.146;2023-04-19T12:39:26;4.85;;;4.45;;
823;SDS011;373;49.342;8.146;2023-04-19T12:41:54;5.32;;;4.93;;
823;SDS011;373;49.342;8.146;2023-04-19T12:44:21;5.95;;;5.45;;
823;SDS011;373;49.342;8.146;2023-04-19T12:46:48;4.50;;;4.10;;
823;SDS011;373;49.342;8.146;2023-04-19T12:49:16;4.55;;;4.07;;
823;SDS011;373;49.342;8.146;2023-04-19T12:51:45;4.60;;;4.20;;
823;SDS011;373;49.342;8.146;2023-04-19T12:54:12;5.25;;;4.40;;
823;SDS011;373;49.342;8.146;2023-04-19T12:56:41;4.50;;;4.10;;
823;SDS011;373;49.342;8.146;2023-04-19T12:59:08;3.95;;;3.65;;
823;SDS011;373;49.342;8.146;2023-04-19T13:01:36;5.10;;;4.10;;
823;SDS011;373;49.342;8.146;2023-04-19T13:04:03;3.83;;;3.53;;
823;SDS011;373;49.342;8.146;2023-04-19T13:06:32;4.32;;;3.72;;
823;SDS011;373;49.342;8.146;2023-04-19T13:08:59;3.40;;;3.10;;
823;SDS011;373;49.342;8.146;2023-04-19T13:11:26;3.97;;;3.65;;
823;SDS011;373;49.342;8.146;2023-04-19T13:13:54;3.53;;;2.92;;
823;SDS011;373;49.342;8.146;2023-04-19T13:16:21;3.03;;;2.72;;
823;SDS011;373;49.342;8.146;2023-04-19T13:18:48;3.70;;;3.40;;
823;SDS011;373;49.342;8.146;2023-04-19T13:21:16;3.75;;;3.20;;
823;SDS011;373;49.342;8.146;2023-04-19T13:23:43;3.42;;;3.13;;
823;SDS011;373;49.342;8.146;2023-04-19T13:26:10;3.80;;;3.30;;
823;SDS011;373;49.342;8.146;2023-04-19T13:28:39;3.60;;;3.30;;
823;SDS011;373;49.342;8.146;2023-04-19T13:31:08;4.18;;;3.40;;
823;SDS011;373;49.342;8.146;2023-04-19T13:33:35;3.20;;;2.97;;
823;SDS011;373;49.342;8.146;2023-04-19T13:36:02;4.45;;;3.42;;
823;SDS011;373;49.342;8.146;2023-04-19T13:38:30;5.25;;;3.60;;
823;SDS011;373;49.342;8.146;2023-04-19T13:40:57;4.50;;;3.83;;
823;SDS011;373;49.342;8.146;2023-04-19T13:43:24;3.58;;;3.13;;
823;SDS011;373;49.342;8.146;2023-04-19T13:45:51;3.90;;;3.00;;
823;SDS011;373;49.342;8.146;2023-04-19T13:48:20;3.97;;;3.58;;
823;SDS011;373;49.342;8.146;2023-04-19T13:50:47;3.42;;;3.03;;
823;SDS011;373;49.342;8.146;2023-04-19T13:53:15;3.72;;;3.42;;
823;SDS011;373;49.342;8.146;2023-04-19T13:55:42;6.85;;;3.00;;
823;SDS011;373;49.342;8.146;2023-04-19T13:58:09;3.35;;;3.05;;
823;SDS011;373;49.342;8.146;2023-04-19T14:00:36;5.32;;;3.50;;
823;SDS011;373;49.342;8.146;2023-04-19T14:03:03;3.63;;;2.95;;
823;SDS011;373;49.342;8.146;2023-04-19T14:05:32;3.65;;;2.88;;
823;SDS011;373;49.342;8.146;2023-04-19T14:07:59;3.78;;;3.20;;
823;SDS011;373;49.342;8.146;2023-04-19T14:10:26;4.18;;;3.25;;
823;SDS011;373;49.342;8.146;2023-04-19T14:12:53;4.13;;;2.80;;
823;SDS011;373;49.342;8.146;2023-04-19T14:15:20;2.72;;;2.53;;
823;SDS011;373;49.342;8.146;2023-04-19T14:17:48;4.10;;;2.88;;
823;SDS011;373;49.342;8.146;2023-04-19T14:20:15;2.85;;;2.13;;
823;SDS011;373;49.342;8.146;2023-04-19T14:22:44;3.20;;;2.75;;
823;SDS011;373;49.342;8.146;2023-04-19T14:25:12;2.75;;;2.55;;
823;SDS011;373;49.342;8.146;2023-04-19T14:27:40;2.97;;;2.50;;
823;SDS011;373;49.342;8.146;2023-04-19T14:30:08;4.43;;;2.47;;
823;SDS011;373;49.342;8.146;2023-04-19T14:32:35;3.22;;;2.92;;
823;SDS011;373;49.342;8.146;2023-04-19T14:35:02;4.45;;;2.67;;
823;SDS011;373;49.342;8.146;2023-04-19T14:37:30;2.50;;;2.25;;
823;SDS011;373;49.342;8.146;2023-04-19T14:39:58;2.35;;;2.10;;
823;SDS011;373;49.342;8.146;2023-04-19T14:42:25;2.33;;;2.13;;
823;SDS011;373;49.342;8.146;2023-04-19T14:44:52;2.20;;;1.90;;
823;SDS011;373;49.342;8.146;2023-04-19T14:47:19;1.70;;;1.45;;
823;SDS011;373;49.342;8.146;2023-04-19T14:49:46;2.10;;;1.60;;
823;SDS011;373;49.342;8.146;2023-04-19T14:52:13;1.50;;;1.40;;
823;SDS011;373;49.342;8.146;2023-04-19T14:54:41;1.60;;;1.50;;
823;SDS011;373;49.342;8.146;2023-04-19T14:57:09;2.67;;;1.77;;
823;SDS011;373;49.342;8.146;2023-04-19T14:59:36;3.90;;;1.52;;
823;SDS011;373;49.342;8.146;2023-04-19T15:02:03;2.08;;;1.38;;
823;SDS011;373;49.342;8.146;2023-04-19T15:04:32;3.28;;;1.60;;
823;SDS011;373;49.342;8.146;2023-04-19T15:07:00;1.90;;;1.52;;
823;SDS011;373;49.342;8.146;2023-04-19T15:09:28;1.40;;;1.30;;
823;SDS011;373;49.342;8.146;2023-04-19T15:11:55;2.38;;;1.33;;
823;SDS011;373;49.342;8.146;2023-04-19T15:14:24;2.17;;;1.38;;
823;SDS011;373;49.342;8.146;2023-04-19T15:16:50;1.60;;;1.23;;
823;SDS011;373;49.342;8.146;2023-04-19T15:19:17;2.50;;;0.90;;
823;SDS011;373;49.342;8.146;2023-04-19T15:21:44;1.85;;;1.50;;
823;SDS011;373;49.342;8.146;2023-04-19T15:24:12;1.50;;;1.30;;
823;SDS011;373;49.342;8.146;2023-04-19T15:26:39;1.30;;;0.80;;
823;SDS011;373;49.342;8.146;2023-04-19T15:29:06;1.17;;;1.00;;
823;SDS011;373;49.342;8.146;2023-04-19T15:31:34;1.42;;;1.27;;
823;SDS011;373;49.342;8.146;2023-04-19T15:34:01;0.85;;;0.80;;
823;SDS011;373;49.342;8.146;2023-04-19T15:36:28;1.88;;;1.10;;
823;SDS011;373;49.342;8.146;2023-04-19T15:38:56;1.33;;;1.08;;
823;SDS011;373;49.342;8.146;2023-04-19T15:41:24;2.08;;;1.20;;
823;SDS011;373;49.342;8.146;2023-04-19T15:43:51;3.15;;;1.30;;
823;SDS011;373;49.342;8.146;2023-04-19T15:46:18;2.20;;;1.17;;
823;SDS011;373;49.342;8.146;2023-04-19T15:48:47;2.10;;;1.15;;
823;SDS011;373;49.342;8.146;2023-04-19T15:51:14;1.17;;;1.00;;
823;SDS011;373;49.342;8.146;2023-04-19T15:53:42;1.20;;;1.10;;
823;SDS011;373;49.342;8.146;2023-04-19T15:56:09;1.58;;;1.20;;